Time;durP1;ratioP1;P1;durP2;ratioP2;P2;SDS_P1;SDS_P2;PMS_P1;PMS_P2;Temp;Humidity;BMP_temperature;BMP_pressure;BME280_temperature;BME280_humidity;BME280_pressure;Samples;Min_cycle;Max_cycle;Signal;HPM_P1;HPM_P2
2023/10/13 00:00:25;;;;;;;10.85;6.47;;;;;;;;;;1040337;28;20057;-67
2023/10/13 00:01:06;;;;;;;14.95;6.60;;;;;;;;;;1040972;28;20040;-67
2023/10/13 00:01:44;;;;;;;;;;;;;;;;;;1041212;28;20072;-67
2023/10/13 00:02:18;;;;;;;11.32;6.07;;;;;;;;;;1040259;28;20289;-67
2023/10/13 00:02:49;;;;;;;11.48;6.30;;;;;;;;;;1041298;28;20053;-68
2023/10/13 00:03:21;;;;;;;11.02;6.57;;;;;;;;;;1039550;28;20057;-67
2023/10/13 00:03:53;;;;;;;10.30;6.57;;;;;;;;;;1042320;28;20099;-67
2023/10/13 00:04:24;;;;;;;15.27;6.60;;;;;;;;;;1039577;28;20049;-67
2023/10/13 00:04:56;;;;;;;10.77;6.25;;;;;;;;;;1049779;28;20062;-67
2023/10/13 00:05:30;;;;;;;10.13;6.45;;;;;;;;;;1049152;28;20485;-67
2023/10/13 00:06:03;;;;;;;9.40;6.22;;;;;;;;;;1048420;28;20069;-66
2023/10/13 00:06:33;;;;;;;9.73;6.00;;;;;;;;;;1047059;28;20551;-67
2023/10/13 00:07:08;;;;;;;9.38;6.35;;;;;;;;;;1041426;28;20060;-67
2023/10/13 00:07:38;;;;;;;15.00;6.65;;;;;;;;;;1041486;28;20080;-67
2023/10/13 00:08:09;;;;;;;9.35;6.10;;;;;;;;;;1042197;28;20045;-68
2023/10/13 00:08:40;;;;;;;10.85;5.50;;;;;;;;;;1040721;28;20064;-67
2023/10/13 00:09:14;;;;;;;14.05;6.57;;;;;;;;;;1041629;28;20057;-67
2023/10/13 00:09:45;;;;;;;11.30;6.00;;;;;;;;;;1040934;28;20391;-67
2023/10/13 00:10:18;;;;;;;10.30;5.93;;;;;;;;;;1041584;28;20498;-66
2023/10/13 00:10:49;;;;;;;13.07;6.53;;;;;;;;;;1040974;28;23587;-67
2023/10/13 00:11:21;;;;;;;10.02;6.68;;;;;;;;;;1044309;28;20296;-67
2023/10/13 00:11:53;;;;;;;14.50;6.68;;;;;;;;;;1045437;28;20411;-67
2023/10/13 00:12:24;;;;;;;10.30;6.72;;;;;;;;;;1045912;28;20105;-67
2023/10/13 00:13:05;;;;;;;10.85;6.43;;;;;;;;;;1044907;28;20044;-67
2023/10/13 00:13:51;;;;;;;12.25;6.60;;;;;;;;;;1045813;28;20084;-67
2023/10/13 00:14:21;;;;;;;12.77;6.93;;;;;;;;;;1045330;28;20054;-68
2023/10/13 00:14:53;;;;;;;10.32;6.40;;;;;;;;;;1045463;28;20063;-67
2023/10/13 00:15:27;;;;;;;17.00;7.68;;;;;;;;;;1043955;28;20755;-67
2023/10/13 00:15:58;;;;;;;10.68;6.93;;;;;;;;;;1045288;28;20139;-67
2023/10/13 00:16:30;;;;;;;13.90;7.40;;;;;;;;;;1045732;28;20056;-67
2023/10/13 00:17:15;;;;;;;13.30;7.57;;;;;;;;;;1046337;28;20081;-67
2023/10/13 00:17:46;;;;;;;14.13;6.70;;;;;;;;;;1044839;28;20064;-67
2023/10/13 00:18:19;;;;;;;13.65;6.78;;;;;;;;;;1044993;28;20053;-67
2023/10/13 00:18:54;;;;;;;15.60;7.57;;;;;;;;;;1046287;28;20048;-67
2023/10/13 00:19:24;;;;;;;12.65;7.32;;;;;;;;;;1043398;28;20044;-67
2023/10/13 00:19:55;;;;;;;13.18;7.03;;;;;;;;;;1044789;28;20127;-67
2023/10/13 00:20:35;;;;;;;15.82;7.25;;;;;;;;;;1043521;28;20075;-68
2023/10/13 00:22:08;;;;;;;15.48;6.63;;;;;;;;;;1045609;28;20052;-68
2023/10/13 00:22:40;;;;;;;9.10;5.85;;;;;;;;;;1042486;28;20048;-66
2023/10/13 00:23:12;;;;;;;12.18;6.72;;;;;;;;;;1044062;28;20049;-68
2023/10/13 00:23:53;;;;;;;13.02;6.53;;;;;;;;;;1044543;28;20520;-67
2023/10/13 00:24:29;;;;;;;11.82;6.40;;;;;;;;;;1045243;28;20052;-66
2023/10/13 00:25:03;;;;;;;14.45;6.10;;;;;;;;;;1043480;28;20041;-68
2023/10/13 00:25:43;;;;;;;11.60;6.05;;;;;;;;;;1043855;28;20110;-68
2023/10/13 00:26:18;;;;;;;10.50;6.22;;;;;;;;;;1045172;28;20048;-68
2023/10/13 00:26:48;;;;;;;8.88;5.80;;;;;;;;;;1045017;28;20056;-67
2023/10/13 00:27:36;;;;;;;13.00;6.30;;;;;;;;;;1046116;28;20067;-66
2023/10/13 00:28:08;;;;;;;13.95;7.13;;;;;;;;;;1043819;28;20063;-67
2023/10/13 00:28:48;;;;;;;11.65;6.00;;;;;;;;;;1045006;28;20055;-67
2023/10/13 00:29:29;;;;;;;10.85;6.20;;;;;;;;;;1044643;28;20052;-67
2023/10/13 00:31:04;;;;;;;8.27;5.95;;;;;;;;;;1043039;28;20540;-67
2023/10/13 00:31:38;;;;;;;10.50;5.63;;;;;;;;;;1044721;28;20481;-68
2023/10/13 00:32:12;;;;;;;12.02;6.10;;;;;;;;;;1044295;28;20053;-67
2023/10/13 00:32:51;;;;;;;10.48;6.75;;;;;;;;;;1044918;28;20139;-66
2023/10/13 00:33:22;;;;;;;10.10;6.45;;;;;;;;;;1045143;28;20079;-67
2023/10/13 00:33:55;;;;;;;10.68;6.10;;;;;;;;;;1045525;28;20044;-67
2023/10/13 00:34:27;;;;;;;12.15;6.22;;;;;;;;;;1045085;28;20538;-67
2023/10/13 00:34:58;;;;;;;13.27;6.38;;;;;;;;;;1044399;28;20048;-68
2023/10/13 00:35:35;;;;;;;10.18;6.57;;;;;;;;;;1043038;28;20052;-67
2023/10/13 00:36:07;;;;;;;11.55;6.50;;;;;;;;;;1043876;28;20131;-68
2023/10/13 00:37:12;;;;;;;12.25;6.45;;;;;;;;;;1045350;28;20113;-67
2023/10/13 00:37:47;;;;;;;13.18;6.55;;;;;;;;;;1044751;28;20060;-68
2023/10/13 00:38:18;;;;;;;12.98;7.32;;;;;;;;;;1043265;28;20094;-67
2023/10/13 00:38:51;;;;;;;11.25;6.38;;;;;;;;;;1045627;28;20060;-67
2023/10/13 00:39:23;;;;;;;15.38;7.70;;;;;;;;;;1041881;28;20044;-67
2023/10/13 00:39:56;;;;;;;14.00;7.18;;;;;;;;;;1043188;28;20053;-67
2023/10/13 00:41:17;;;;;;;12.10;7.03;;;;;;;;;;1045340;28;20048;-67
2023/10/13 00:42:07;;;;;;;11.40;6.63;;;;;;;;;;1044535;28;20056;-67
2023/10/13 00:42:51;;;;;;;10.65;6.50;;;;;;;;;;1045910;28;20114;-67
2023/10/13 00:44:07;;;;;;;11.38;7.10;;;;;;;;;;1046137;28;20044;-67
2023/10/13 00:44:38;;;;;;;15.38;6.13;;;;;;;;;;1043863;28;20053;-67
2023/10/13 00:45:09;;;;;;;14.63;7.20;;;;;;;;;;1042791;28;20144;-67
2023/10/13 00:45:40;;;;;;;13.27;6.20;;;;;;;;;;1042364;28;20059;-67
2023/10/13 00:46:13;;;;;;;12.80;6.82;;;;;;;;;;1044838;28;20105;-67
2023/10/13 00:46:45;;;;;;;7.30;5.45;;;;;;;;;;1044426;28;20050;-67
2023/10/13 00:47:36;;;;;;;10.10;6.35;;;;;;;;;;1045802;28;20572;-67
2023/10/13 00:48:10;;;;;;;9.43;5.78;;;;;;;;;;1043876;28;20052;-67
2023/10/13 00:48:45;;;;;;;8.95;6.07;;;;;;;;;;1044702;28;20055;-68
2023/10/13 00:49:16;;;;;;;8.13;5.95;;;;;;;;;;1043587;28;20052;-67
2023/10/13 00:49:47;;;;;;;9.13;5.60;;;;;;;;;;1044871;28;20052;-66
2023/10/13 00:50:18;;;;;;;8.93;5.70;;;;;;;;;;1043303;28;20080;-67
2023/10/13 00:50:49;;;;;;;8.10;5.45;;;;;;;;;;1046208;28;20044;-67
2023/10/13 00:51:34;;;;;;;7.72;5.75;;;;;;;;;;1044894;28;20547;-66
2023/10/13 00:52:06;;;;;;;9.20;6.10;;;;;;;;;;1042834;28;20072;-68
2023/10/13 00:52:41;;;;;;;11.50;5.75;;;;;;;;;;1044262;28;20480;-67
2023/10/13 00:53:12;;;;;;;10.57;5.70;;;;;;;;;;1045080;28;20079;-67
2023/10/13 00:53:44;;;;;;;9.15;6.22;;;;;;;;;;1044889;28;20475;-67
2023/10/13 00:54:22;;;;;;;8.93;5.85;;;;;;;;;;1044268;28;20063;-67
2023/10/13 00:54:59;;;;;;;11.85;6.00;;;;;;;;;;1045690;28;20046;-67
2023/10/13 00:55:33;;;;;;;10.07;6.10;;;;;;;;;;1044199;28;20051;-66
2023/10/13 00:56:18;;;;;;;9.55;6.07;;;;;;;;;;1045239;28;20135;-67
2023/10/13 00:56:57;;;;;;;12.65;5.95;;;;;;;;;;1044311;28;20135;-67
2023/10/13 00:57:29;;;;;;;11.57;6.32;;;;;;;;;;1044014;28;20558;-67
2023/10/13 00:58:03;;;;;;;10.70;6.40;;;;;;;;;;1044982;28;20472;-67
2023/10/13 00:58:35;;;;;;;14.70;7.65;;;;;;;;;;1043649;28;20052;-67
2023/10/13 00:59:05;;;;;;;15.60;7.22;;;;;;;;;;1042659;28;20416;-67
2023/10/13 00:59:36;;;;;;;13.32;7.50;;;;;;;;;;1044617;28;20378;-67
2023/10/13 01:00:19;;;;;;;13.77;7.18;;;;;;;;;;1044032;28;20052;-67
2023/10/13 01:00:55;;;;;;;13.82;7.18;;;;;;;;;;1043884;28;20068;-67
2023/10/13 01:01:32;;;;;;;13.82;8.18;;;;;;;;;;1045063;28;20443;-66
2023/10/13 01:02:55;;;;;;;12.20;6.82;;;;;;;;;;1044791;28;20048;-67
2023/10/13 01:03:26;;;;;;;15.20;7.07;;;;;;;;;;1043850;28;20056;-67
2023/10/13 01:04:00;;;;;;;11.27;6.63;;;;;;;;;;1045381;28;20540;-67
2023/10/13 01:04:31;;;;;;;13.13;7.18;;;;;;;;;;1043600;28;20146;-67
2023/10/13 01:05:03;;;;;;;12.60;6.65;;;;;;;;;;1045904;28;20063;-67
2023/10/13 01:05:35;;;;;;;14.07;6.72;;;;;;;;;;1043908;28;20096;-66
2023/10/13 01:06:06;;;;;;;12.27;6.80;;;;;;;;;;1044138;28;20065;-68
2023/10/13 01:06:37;;;;;;;9.02;6.13;;;;;;;;;;1044374;28;20497;-67
2023/10/13 01:07:08;;;;;;;12.43;6.30;;;;;;;;;;1045344;28;20044;-67
2023/10/13 01:07:38;;;;;;;14.45;7.32;;;;;;;;;;1045447;28;20101;-67
2023/10/13 01:08:10;;;;;;;11.68;6.60;;;;;;;;;;1043614;28;20555;-66
2023/10/13 01:08:44;;;;;;;13.38;6.60;;;;;;;;;;1044451;28;20067;-66
2023/10/13 01:09:17;;;;;;;16.23;7.20;;;;;;;;;;1043786;28;20106;-67
2023/10/13 01:09:48;;;;;;;10.68;6.35;;;;;;;;;;1045048;28;20076;-67
2023/10/13 01:10:19;;;;;;;11.95;5.82;;;;;;;;;;1045113;28;20041;-67
2023/10/13 01:10:50;;;;;;;10.68;6.35;;;;;;;;;;1043853;28;20279;-67
2023/10/13 01:11:23;;;;;;;14.57;6.78;;;;;;;;;;1045092;28;20048;-68
2023/10/13 01:11:55;;;;;;;13.43;5.90;;;;;;;;;;1043544;28;20058;-67
2023/10/13 01:12:25;;;;;;;12.82;6.05;;;;;;;;;;1044148;28;20139;-67
2023/10/13 01:12:56;;;;;;;7.63;5.38;;;;;;;;;;1045500;28;20048;-68
2023/10/13 01:13:27;;;;;;;11.32;5.47;;;;;;;;;;1044876;28;20064;-67
2023/10/13 01:14:00;;;;;;;11.43;6.32;;;;;;;;;;1043587;28;20074;-67
2023/10/13 01:14:31;;;;;;;14.60;5.95;;;;;;;;;;1045400;28;20064;-68
2023/10/13 01:15:07;;;;;;;11.38;6.10;;;;;;;;;;1045238;28;20135;-67
2023/10/13 01:15:40;;;;;;;8.90;5.63;;;;;;;;;;1045228;28;20052;-67
2023/10/13 01:16:11;;;;;;;10.43;5.88;;;;;;;;;;1044375;28;20052;-68
2023/10/13 01:16:44;;;;;;;8.43;5.63;;;;;;;;;;1045127;28;20094;-68
2023/10/13 01:17:15;;;;;;;10.23;5.60;;;;;;;;;;1044006;28;20138;-67
2023/10/13 01:17:45;;;;;;;14.60;5.93;;;;;;;;;;1044675;28;20040;-68
2023/10/13 01:18:16;;;;;;;10.93;5.47;;;;;;;;;;1044217;28;20041;-67
2023/10/13 01:18:48;;;;;;;8.52;6.13;;;;;;;;;;1045867;28;20164;-68
2023/10/13 01:19:27;;;;;;;11.50;6.03;;;;;;;;;;1042991;28;20044;-68
2023/10/13 01:19:58;;;;;;;9.15;6.07;;;;;;;;;;1045320;28;20079;-67
2023/10/13 01:20:29;;;;;;;8.43;5.93;;;;;;;;;;1043964;28;20052;-67
2023/10/13 01:20:59;;;;;;;10.20;5.93;;;;;;;;;;1044976;28;20053;-69
2023/10/13 01:21:32;;;;;;;13.52;6.68;;;;;;;;;;1044221;28;20401;-67
2023/10/13 01:22:04;;;;;;;11.82;6.28;;;;;;;;;;1044640;28;20433;-67
2023/10/13 01:22:36;;;;;;;10.27;6.07;;;;;;;;;;1044801;28;20055;-68
2023/10/13 01:23:18;;;;;;;11.45;7.15;;;;;;;;;;1044786;28;20051;-67
2023/10/13 01:23:50;;;;;;;12.80;6.15;;;;;;;;;;1043876;28;20067;-67
2023/10/13 01:24:24;;;;;;;12.93;6.82;;;;;;;;;;1045190;28;20051;-67
2023/10/13 01:25:04;;;;;;;12.52;6.57;;;;;;;;;;1045564;28;20052;-68
2023/10/13 01:25:35;;;;;;;14.70;5.88;;;;;;;;;;1044694;28;20060;-67
2023/10/13 01:26:05;;;;;;;10.48;6.32;;;;;;;;;;1043892;28;20052;-67
2023/10/13 01:26:39;;;;;;;9.35;6.28;;;;;;;;;;1044802;28;20055;-67
2023/10/13 01:27:20;;;;;;;11.35;6.82;;;;;;;;;;1044813;28;20087;-67
2023/10/13 01:27:51;;;;;;;14.15;6.90;;;;;;;;;;1044315;28;20059;-67
2023/10/13 01:28:22;;;;;;;15.55;6.53;;;;;;;;;;1045242;28;20052;-68
2023/10/13 01:28:59;;;;;;;13.57;6.95;;;;;;;;;;1044864;28;20493;-67
2023/10/13 01:29:30;;;;;;;14.77;7.40;;;;;;;;;;1044387;28;20134;-67
2023/10/13 01:30:06;;;;;;;13.30;6.75;;;;;;;;;;1044046;28;20095;-67
2023/10/13 01:30:38;;;;;;;15.80;7.30;;;;;;;;;;1043690;28;20106;-67
2023/10/13 01:31:11;;;;;;;13.32;6.28;;;;;;;;;;1044075;28;20059;-67
2023/10/13 01:31:46;;;;;;;8.80;6.10;;;;;;;;;;1044914;28;20055;-67
2023/10/13 01:32:21;;;;;;;11.63;6.57;;;;;;;;;;1043084;28;20032;-67
2023/10/13 01:32:53;;;;;;;15.40;6.90;;;;;;;;;;1045267;28;20048;-67
2023/10/13 01:33:27;;;;;;;11.05;6.97;;;;;;;;;;1045780;28;20052;-67
2023/10/13 01:33:58;;;;;;;11.43;6.80;;;;;;;;;;1044625;28;20172;-67
2023/10/13 01:34:33;;;;;;;12.18;7.13;;;;;;;;;;1043169;28;20059;-66
2023/10/13 01:35:06;;;;;;;14.40;6.75;;;;;;;;;;1044365;28;20132;-67
2023/10/13 01:35:42;;;;;;;9.63;6.43;;;;;;;;;;1043178;28;20045;-67
2023/10/13 01:36:17;;;;;;;11.93;6.80;;;;;;;;;;1043609;28;20056;-67
2023/10/13 01:36:50;;;;;;;11.43;6.18;;;;;;;;;;1044953;28;20119;-67
2023/10/13 01:37:21;;;;;;;11.98;6.00;;;;;;;;;;1045361;28;20562;-68
2023/10/13 01:37:52;;;;;;;13.05;6.75;;;;;;;;;;1043405;28;20098;-67
2023/10/13 01:38:22;;;;;;;12.95;5.32;;;;;;;;;;1042970;28;21247;-67
2023/10/13 01:38:53;;;;;;;11.20;6.32;;;;;;;;;;1045160;28;20052;-67
2023/10/13 01:39:28;;;;;;;11.93;6.47;;;;;;;;;;1043911;28;20059;-67
2023/10/13 01:39:59;;;;;;;11.13;5.82;;;;;;;;;;1044678;28;20156;-68
2023/10/13 01:40:33;;;;;;;10.77;6.18;;;;;;;;;;1043920;28;20079;-67
2023/10/13 01:41:08;;;;;;;11.63;5.35;;;;;;;;;;1043296;28;20051;-67
2023/10/13 01:41:39;;;;;;;9.13;5.32;;;;;;;;;;1042955;28;20744;-67
2023/10/13 01:42:14;;;;;;;10.88;5.85;;;;;;;;;;1045186;28;20566;-66
2023/10/13 01:42:46;;;;;;;11.40;6.35;;;;;;;;;;1044985;28;20155;-67
2023/10/13 01:43:17;;;;;;;10.13;6.05;;;;;;;;;;1044854;28;21313;-67
2023/10/13 01:43:48;;;;;;;12.50;5.65;;;;;;;;;;1044473;28;20075;-67
2023/10/13 01:44:19;;;;;;;8.73;6.28;;;;;;;;;;1044200;28;20044;-67
2023/10/13 01:44:51;;;;;;;11.85;5.90;;;;;;;;;;1043691;28;20072;-67
2023/10/13 01:45:23;;;;;;;10.48;5.97;;;;;;;;;;1043269;28;20052;-67
2023/10/13 01:45:54;;;;;;;14.57;6.85;;;;;;;;;;1045243;28;20059;-67
2023/10/13 01:46:25;;;;;;;12.68;6.43;;;;;;;;;;1044149;28;20048;-67
2023/10/13 01:46:59;;;;;;;11.73;6.18;;;;;;;;;;1043112;28;20048;-67
2023/10/13 01:47:29;;;;;;;15.95;6.68;;;;;;;;;;1044307;28;20048;-67
2023/10/13 01:48:01;;;;;;;12.98;6.43;;;;;;;;;;1044403;28;20055;-67
2023/10/13 01:48:38;;;;;;;15.02;6.63;;;;;;;;;;1044510;28;20044;-67
2023/10/13 01:49:09;;;;;;;13.93;7.15;;;;;;;;;;1044298;28;20149;-66
2023/10/13 01:49:47;;;;;;;12.02;6.72;;;;;;;;;;1044860;28;20053;-66
2023/10/13 01:50:21;;;;;;;16.05;6.15;;;;;;;;;;1044788;28;20056;-67
2023/10/13 01:50:59;;;;;;;9.82;6.03;;;;;;;;;;1043412;28;20140;-68
2023/10/13 01:51:30;;;;;;;13.68;6.13;;;;;;;;;;1043186;28;20521;-67
2023/10/13 01:52:03;;;;;;;13.50;6.55;;;;;;;;;;1044629;28;20594;-67
2023/10/13 01:52:34;;;;;;;9.75;6.63;;;;;;;;;;1040186;28;20059;-67
2023/10/13 01:53:17;;;;;;;15.07;7.47;;;;;;;;;;1048493;28;20071;-68
2023/10/13 01:53:56;;;;;;;12.20;6.53;;;;;;;;;;1052958;28;20488;-67
2023/10/13 01:54:26;;;;;;;10.57;5.95;;;;;;;;;;1044730;28;20059;-66
2023/10/13 01:55:00;;;;;;;9.77;5.78;;;;;;;;;;1042261;28;20061;-67
2023/10/13 01:55:39;;;;;;;11.63;6.07;;;;;;;;;;1038816;28;20107;-67
2023/10/13 01:56:12;;;;;;;9.63;6.20;;;;;;;;;;1041512;28;20770;-67
2023/10/13 01:56:43;;;;;;;10.77;6.22;;;;;;;;;;1043048;28;20056;-67
2023/10/13 01:57:14;;;;;;;9.02;5.88;;;;;;;;;;1043781;28;20052;-67
2023/10/13 01:57:47;;;;;;;10.45;5.93;;;;;;;;;;1039884;28;20057;-67
2023/10/13 01:58:22;;;;;;;12.05;6.65;;;;;;;;;;1040895;28;20055;-67
2023/10/13 01:58:53;;;;;;;9.25;5.75;;;;;;;;;;1038873;28;20057;-67
2023/10/13 01:59:26;;;;;;;8.60;5.72;;;;;;;;;;1041033;28;20510;-68
2023/10/13 01:59:56;;;;;;;13.20;5.85;;;;;;;;;;1040781;28;20040;-66
2023/10/13 02:00:28;;;;;;;10.23;5.80;;;;;;;;;;1039872;28;20073;-67
2023/10/13 02:00:59;;;;;;;12.80;5.72;;;;;;;;;;1039835;28;20076;-67
2023/10/13 02:01:34;;;;;;;10.27;5.65;;;;;;;;;;1045030;28;20060;-67
2023/10/13 02:02:04;;;;;;;14.05;5.55;;;;;;;;;;1043710;28;20052;-67
2023/10/13 02:02:44;;;;;;;11.90;6.20;;;;;;;;;;1040152;28;20401;-68
2023/10/13 02:03:16;;;;;;;12.10;6.18;;;;;;;;;;1042909;28;20446;-67
2023/10/13 02:03:48;;;;;;;11.68;6.13;;;;;;;;;;1043617;28;20102;-68
2023/10/13 02:04:21;;;;;;;10.43;5.72;;;;;;;;;;1043412;28;20055;-68
2023/10/13 02:05:00;;;;;;;12.27;6.57;;;;;;;;;;1040419;28;20049;-67
2023/10/13 02:05:36;;;;;;;14.93;6.13;;;;;;;;;;1043782;28;20134;-66
2023/10/13 02:06:10;;;;;;;11.63;5.20;;;;;;;;;;1043825;28;20468;-67
2023/10/13 02:06:40;;;;;;;11.43;6.28;;;;;;;;;;1043794;28;20044;-67
2023/10/13 02:07:14;;;;;;;13.27;6.72;;;;;;;;;;1042775;28;20052;-67
2023/10/13 02:07:45;;;;;;;11.38;6.35;;;;;;;;;;1044350;28;20056;-68
2023/10/13 02:08:22;;;;;;;11.65;5.75;;;;;;;;;;1044489;28;20057;-67
2023/10/13 02:08:58;;;;;;;9.30;5.50;;;;;;;;;;1045701;28;20044;-67
2023/10/13 02:09:29;;;;;;;10.20;5.78;;;;;;;;;;1043758;28;20040;-67
2023/10/13 02:10:05;;;;;;;10.40;5.60;;;;;;;;;;1046201;28;20076;-68
2023/10/13 02:10:35;;;;;;;9.07;6.07;;;;;;;;;;1044052;28;20099;-66
2023/10/13 02:11:07;;;;;;;12.15;6.32;;;;;;;;;;1044989;28;20147;-68
2023/10/13 02:11:39;;;;;;;10.55;6.47;;;;;;;;;;1043289;28;20048;-67
2023/10/13 02:12:10;;;;;;;9.60;6.32;;;;;;;;;;1045303;28;20094;-67
2023/10/13 02:12:44;;;;;;;13.13;6.22;;;;;;;;;;1045704;28;21600;-67
2023/10/13 02:13:17;;;;;;;14.23;6.47;;;;;;;;;;1044226;28;20137;-67
2023/10/13 02:13:51;;;;;;;11.57;6.03;;;;;;;;;;1044975;28;20056;-68
2023/10/13 02:14:25;;;;;;;11.05;6.25;;;;;;;;;;1042634;28;20091;-67
2023/10/13 02:14:56;;;;;;;14.88;6.32;;;;;;;;;;1044297;28;20085;-67
2023/10/13 02:15:26;;;;;;;11.15;6.35;;;;;;;;;;1043587;28;20057;-66
2023/10/13 02:15:57;;;;;;;14.35;6.78;;;;;;;;;;1045491;28;20048;-68
2023/10/13 02:16:30;;;;;;;9.45;6.30;;;;;;;;;;1044525;28;20055;-67
2023/10/13 02:17:13;;;;;;;13.10;7.07;;;;;;;;;;1045847;28;20502;-67
2023/10/13 02:17:44;;;;;;;13.07;7.50;;;;;;;;;;1039569;28;20061;-66
2023/10/13 02:18:24;;;;;;;12.68;7.43;;;;;;;;;;1040862;28;20122;-67
2023/10/13 02:19:04;;;;;;;11.98;6.15;;;;;;;;;;1040442;28;20051;-67
2023/10/13 02:19:34;;;;;;;13.50;7.28;;;;;;;;;;1043994;28;20062;-67
2023/10/13 02:20:08;;;;;;;11.65;7.32;;;;;;;;;;1045270;28;20060;-67
2023/10/13 02:20:43;;;;;;;11.65;6.82;;;;;;;;;;1043684;28;20754;-67
2023/10/13 02:21:13;;;;;;;12.00;7.05;;;;;;;;;;1043748;28;20089;-67
2023/10/13 02:21:44;;;;;;;13.93;8.10;;;;;;;;;;1044002;28;20118;-67
2023/10/13 02:22:24;;;;;;;10.65;6.82;;;;;;;;;;1044925;28;20474;-68
2023/10/13 02:22:54;;;;;;;16.52;7.47;;;;;;;;;;1043397;28;20041;-67
2023/10/13 02:23:29;;;;;;;15.27;7.00;;;;;;;;;;1045048;28;20068;-67
2023/10/13 02:23:59;;;;;;;12.65;7.28;;;;;;;;;;1043783;28;20052;-67
2023/10/13 02:24:30;;;;;;;12.65;7.28;;;;;;;;;;1044674;28;20052;-67
2023/10/13 02:25:07;;;;;;;16.67;7.72;;;;;;;;;;1043912;28;20080;-68
2023/10/13 02:25:45;;;;;;;15.05;6.80;;;;;;;;;;1044599;28;20064;-67
2023/10/13 02:26:29;;;;;;;13.23;7.10;;;;;;;;;;1043938;28;20061;-68
2023/10/13 02:27:12;;;;;;;10.80;6.20;;;;;;;;;;1045446;28;20126;-67
2023/10/13 02:27:43;;;;;;;10.60;6.93;;;;;;;;;;1044389;28;20135;-67
2023/10/13 02:28:14;;;;;;;14.10;7.03;;;;;;;;;;1044013;28;20052;-67
2023/10/13 02:28:50;;;;;;;13.25;6.38;;;;;;;;;;1045453;28;20434;-67
2023/10/13 02:29:21;;;;;;;15.32;6.90;;;;;;;;;;1042455;28;20127;-67
2023/10/13 02:29:58;;;;;;;15.23;7.93;;;;;;;;;;1043502;28;20048;-67
2023/10/13 02:30:29;;;;;;;15.93;7.07;;;;;;;;;;1042787;28;20048;-67
2023/10/13 02:31:03;;;;;;;14.93;6.50;;;;;;;;;;1044638;28;20063;-67
2023/10/13 02:31:38;;;;;;;12.15;6.65;;;;;;;;;;1044174;28;20151;-67
2023/10/13 02:32:21;;;;;;;14.68;7.40;;;;;;;;;;1044969;28;20123;-67
2023/10/13 02:32:53;;;;;;;11.93;7.10;;;;;;;;;;1044500;28;20080;-67
2023/10/13 02:33:29;;;;;;;15.23;7.03;;;;;;;;;;1045662;28;20062;-67
2023/10/13 02:34:01;;;;;;;11.68;6.70;;;;;;;;;;1043111;28;20132;-67
2023/10/13 02:34:31;;;;;;;14.52;7.10;;;;;;;;;;1045076;28;20109;-67
2023/10/13 02:35:06;;;;;;;11.45;6.65;;;;;;;;;;1045221;28;20102;-67
2023/10/13 02:35:53;;;;;;;12.02;6.32;;;;;;;;;;1044924;28;20056;-67
2023/10/13 02:36:36;;;;;;;;;;;;;;;;;;1047154;27;21245;-69
2023/10/13 02:37:09;;;;;;;11.70;6.25;;;;;;;;;;1044414;28;19921;-68
2023/10/13 02:37:43;;;;;;;10.20;6.63;;;;;;;;;;1050668;28;20052;-68
2023/10/13 02:38:15;;;;;;;11.07;7.07;;;;;;;;;;1046572;28;20052;-68
2023/10/13 02:38:46;;;;;;;10.05;6.15;;;;;;;;;;1045104;28;20492;-68
2023/10/13 02:39:24;;;;;;;12.75;6.28;;;;;;;;;;1045393;28;20148;-68
2023/10/13 02:39:57;;;;;;;15.68;6.85;;;;;;;;;;1047577;28;20040;-68
2023/10/13 02:40:28;;;;;;;15.27;7.30;;;;;;;;;;1048458;28;20048;-68
2023/10/13 02:41:05;;;;;;;15.35;7.70;;;;;;;;;;1049542;28;20052;-69
2023/10/13 02:41:38;;;;;;;16.48;7.38;;;;;;;;;;1047008;28;20489;-69
2023/10/13 02:42:16;;;;;;;16.17;7.60;;;;;;;;;;1048005;28;20040;-68
2023/10/13 02:42:46;;;;;;;15.55;6.90;;;;;;;;;;1048789;28;20519;-68
2023/10/13 02:43:17;;;;;;;14.07;7.05;;;;;;;;;;1048822;28;20120;-68
2023/10/13 02:43:47;;;;;;;15.65;7.20;;;;;;;;;;1049086;28;20056;-68
2023/10/13 02:44:27;;;;;;;12.55;7.35;;;;;;;;;;1048331;28;20105;-68
2023/10/13 02:44:57;;;;;;;11.40;6.82;;;;;;;;;;1049923;28;20055;-69
2023/10/13 02:45:28;;;;;;;12.35;7.05;;;;;;;;;;1047236;28;20047;-68
2023/10/13 02:45:59;;;;;;;13.27;6.82;;;;;;;;;;1048896;28;20063;-68
2023/10/13 02:46:30;;;;;;;15.00;7.10;;;;;;;;;;1046994;28;20166;-68
2023/10/13 02:47:00;;;;;;;17.15;6.50;;;;;;;;;;1048933;28;20484;-68
2023/10/13 02:47:31;;;;;;;15.32;7.53;;;;;;;;;;1055496;28;20044;-68
2023/10/13 02:48:10;;;;;;;16.17;7.82;;;;;;;;;;1057614;28;20100;-68
2023/10/13 02:48:42;;;;;;;14.00;6.80;;;;;;;;;;1051328;28;20056;-69
2023/10/13 02:49:13;;;;;;;16.40;7.03;;;;;;;;;;1051321;28;20101;-68
2023/10/13 02:49:47;;;;;;;14.38;6.53;;;;;;;;;;1048660;28;20061;-68
2023/10/13 02:50:18;;;;;;;15.38;6.25;;;;;;;;;;1046803;28;20125;-68
2023/10/13 02:51:02;;;;;;;15.77;6.68;;;;;;;;;;1049347;28;20400;-68
2023/10/13 02:51:35;;;;;;;15.15;6.57;;;;;;;;;;1046161;28;20052;-68
2023/10/13 02:52:08;;;;;;;16.13;6.85;;;;;;;;;;1048388;28;20045;-68
2023/10/13 02:52:41;;;;;;;15.48;6.45;;;;;;;;;;1047505;28;20145;-67
2023/10/13 02:53:12;;;;;;;17.15;7.05;;;;;;;;;;1048738;27;20052;-68
2023/10/13 02:53:47;;;;;;;11.43;7.35;;;;;;;;;;1047403;28;20053;-68
2023/10/13 02:54:18;;;;;;;14.05;6.60;;;;;;;;;;1047437;28;20217;-69
2023/10/13 02:54:51;;;;;;;11.98;7.00;;;;;;;;;;1048178;28;20071;-68
2023/10/13 02:55:26;;;;;;;15.43;7.50;;;;;;;;;;1046707;28;20052;-68
2023/10/13 02:55:58;;;;;;;12.82;7.22;;;;;;;;;;1043891;28;20463;-69
2023/10/13 02:56:29;;;;;;;14.70;7.88;;;;;;;;;;1043039;28;20045;-68
2023/10/13 02:57:03;;;;;;;16.13;7.55;;;;;;;;;;1044819;28;20633;-68
2023/10/13 02:57:34;;;;;;;17.08;8.10;;;;;;;;;;1043068;28;20067;-69
2023/10/13 02:58:05;;;;;;;18.33;7.30;;;;;;;;;;1042763;28;20045;-68
2023/10/13 02:58:39;;;;;;;15.15;7.90;;;;;;;;;;1042990;28;20049;-68
2023/10/13 02:59:12;;;;;;;12.50;6.88;;;;;;;;;;1045423;28;20073;-67
2023/10/13 02:59:46;;;;;;;17.55;7.82;;;;;;;;;;1052086;28;20086;-68
2023/10/13 03:00:17;;;;;;;16.50;8.10;;;;;;;;;;1045986;28;20044;-67
2023/10/13 03:00:48;;;;;;;10.10;6.53;;;;;;;;;;1043860;28;20049;-68
2023/10/13 03:01:20;;;;;;;19.50;7.93;;;;;;;;;;1043603;28;20044;-69
2023/10/13 03:01:52;;;;;;;12.13;6.93;;;;;;;;;;1043843;28;20056;-68
2023/10/13 03:02:28;;;;;;;17.88;8.18;;;;;;;;;;1047891;28;20732;-69
2023/10/13 03:02:58;;;;;;;15.65;7.25;;;;;;;;;;1048102;28;20123;-68
2023/10/13 03:03:29;;;;;;;15.93;7.38;;;;;;;;;;1048238;28;20045;-68
2023/10/13 03:04:02;;;;;;;12.48;7.40;;;;;;;;;;1048711;28;20229;-68
2023/10/13 03:04:33;;;;;;;12.05;6.78;;;;;;;;;;1046724;28;20128;-68
2023/10/13 03:05:13;;;;;;;11.95;6.97;;;;;;;;;;1047866;28;20055;-68
2023/10/13 03:05:45;;;;;;;;;;;;;;;;;;1048763;28;20309;-68
2023/10/13 03:06:16;;;;;;;13.15;6.45;;;;;;;;;;1046258;28;19932;-68
2023/10/13 03:06:47;;;;;;;11.25;7.00;;;;;;;;;;1048063;28;20048;-68
2023/10/13 03:07:28;;;;;;;12.50;7.00;;;;;;;;;;1046477;28;20051;-68
2023/10/13 03:07:58;;;;;;;13.73;7.13;;;;;;;;;;1049270;28;20052;-68
2023/10/13 03:08:31;;;;;;;12.98;6.78;;;;;;;;;;1047902;28;20048;-68
2023/10/13 03:09:17;;;;;;;13.05;7.13;;;;;;;;;;1048556;28;20052;-68
2023/10/13 03:09:50;;;;;;;13.25;6.78;;;;;;;;;;1048174;28;20117;-68
2023/10/13 03:10:21;;;;;;;11.70;7.18;;;;;;;;;;1048929;28;20052;-68
2023/10/13 03:10:54;;;;;;;12.07;6.47;;;;;;;;;;1048797;28;20048;-68
2023/10/13 03:11:25;;;;;;;13.85;6.50;;;;;;;;;;1047878;28;20048;-68
2023/10/13 03:11:55;;;;;;;11.77;6.80;;;;;;;;;;1046781;28;20142;-68
2023/10/13 03:12:33;;;;;;;16.77;7.30;;;;;;;;;;1048046;27;20048;-68
2023/10/13 03:13:03;;;;;;;18.17;7.32;;;;;;;;;;1047243;27;20504;-68
2023/10/13 03:13:34;;;;;;;16.23;7.30;;;;;;;;;;1047830;28;20488;-68
2023/10/13 03:14:06;;;;;;;14.02;6.68;;;;;;;;;;1047973;28;20462;-67
2023/10/13 03:14:36;;;;;;;14.75;6.90;;;;;;;;;;1049181;28;20067;-69
2023/10/13 03:15:17;;;;;;;19.30;7.20;;;;;;;;;;1046575;28;20060;-68
2023/10/13 03:15:48;;;;;;;13.00;6.90;;;;;;;;;;1048163;28;20044;-68
2023/10/13 03:16:22;;;;;;;14.20;7.15;;;;;;;;;;1046981;28;20048;-68
2023/10/13 03:16:54;;;;;;;15.20;6.78;;;;;;;;;;1049040;28;20044;-68
2023/10/13 03:17:33;;;;;;;14.35;7.18;;;;;;;;;;1047523;28;20125;-67
2023/10/13 03:18:04;;;;;;;16.90;7.70;;;;;;;;;;1047128;28;20093;-68
2023/10/13 03:18:36;;;;;;;16.33;8.27;;;;;;;;;;1047608;28;20056;-68
2023/10/13 03:19:09;;;;;;;16.92;7.82;;;;;;;;;;1048197;28;20079;-68
2023/10/13 03:19:49;;;;;;;21.95;7.50;;;;;;;;;;1047467;28;20159;-68
2023/10/13 03:20:25;;;;;;;18.70;8.07;;;;;;;;;;1047408;27;20041;-68
2023/10/13 03:20:59;;;;;;;13.23;7.20;;;;;;;;;;1048145;28;20516;-68
2023/10/13 03:21:31;;;;;;;16.67;7.70;;;;;;;;;;1045123;28;20413;-68
2023/10/13 03:22:10;;;;;;;13.05;6.47;;;;;;;;;;1049215;28;20036;-70
2023/10/13 03:22:45;;;;;;;18.60;6.45;;;;;;;;;;1045687;28;20819;-68
2023/10/13 03:23:15;;;;;;;13.90;7.30;;;;;;;;;;1048887;28;20048;-67
2023/10/13 03:23:47;;;;;;;14.38;6.40;;;;;;;;;;1047991;28;20118;-68
2023/10/13 03:24:22;;;;;;;15.07;6.95;;;;;;;;;;1048823;28;20106;-68
2023/10/13 03:24:53;;;;;;;12.05;6.65;;;;;;;;;;1046977;28;20040;-68